createdAt,value
2019-01-26T00:02:06.904Z,11.18
2019-01-26T00:08:01.902Z,16.61
2019-01-26T00:13:56.871Z,17.92
2019-01-26T00:19:51.905Z,18.46
2019-01-26T00:25:46.879Z,18.26
2019-01-26T00:31:41.891Z,14.95
2019-01-26T00:37:36.899Z,13.18
2019-01-26T00:43:31.883Z,13.28
2019-01-26T00:49:26.893Z,12
2019-01-26T00:55:21.893Z,10.45
2019-01-26T01:01:16.884Z,13.7
2019-01-26T01:07:11.912Z,12.19
2019-01-26T01:13:06.905Z,10.93
2019-01-26T01:19:01.962Z,11.51
2019-01-26T01:24:56.928Z,11.07
2019-01-26T01:30:51.923Z,8.33
2019-01-26T01:36:46.945Z,7.5
2019-01-26T01:42:41.911Z,8.07
2019-01-26T01:48:36.900Z,8.53
2019-01-26T01:54:31.922Z,12.33
2019-01-26T02:00:26.934Z,11.3
2019-01-26T02:06:21.976Z,15.23
2019-01-26T02:12:16.930Z,15.53
2019-01-26T02:18:11.943Z,14.27
2019-01-26T02:24:06.957Z,14.4
2019-01-26T02:30:01.970Z,15.78
2019-01-26T02:35:56.958Z,14.05
2019-01-26T02:41:51.960Z,12.79
2019-01-26T02:47:46.945Z,12.32
2019-01-26T02:53:41.960Z,12.04
2019-01-26T02:59:36.964Z,7.25
2019-01-26T03:05:31.966Z,6.6
2019-01-26T03:11:27.001Z,6.03
2019-01-26T03:17:21.959Z,5.44
2019-01-26T03:23:16.969Z,4.83
2019-01-26T03:29:11.970Z,4.32
2019-01-26T03:35:06.987Z,4.09
2019-01-26T03:41:01.995Z,4.58
2019-01-26T03:46:56.991Z,4.93
2019-01-26T03:52:51.986Z,4.51
2019-01-26T03:58:46.986Z,5.33
2019-01-26T04:04:42.007Z,5.01
2019-01-26T04:10:36.997Z,3.96
2019-01-26T04:16:31.975Z,4.04
2019-01-26T04:22:27.055Z,5.4
2019-01-26T04:28:21.993Z,3.88
2019-01-26T04:34:17.013Z,4.25
2019-01-26T04:40:12.015Z,3.15
2019-01-26T04:46:07.024Z,3.19
2019-01-26T04:52:02.025Z,3.01
2019-01-26T04:57:57.037Z,4.63
2019-01-26T05:03:52.070Z,3.5
2019-01-26T05:09:47.010Z,3.01
2019-01-26T05:15:42.041Z,8.37
2019-01-26T05:21:37.039Z,11.23
2019-01-26T05:27:32.042Z,13.68
2019-01-26T05:33:27.058Z,15.82
2019-01-26T05:39:22.030Z,19.12
2019-01-26T05:45:17.062Z,12.42
2019-01-26T05:51:12.034Z,9.45
2019-01-26T05:57:07.056Z,12.43
2019-01-26T06:03:02.073Z,11.85
2019-01-26T06:08:57.057Z,9.91
2019-01-26T06:14:52.097Z,15.01
2019-01-26T06:20:47.074Z,13.08
2019-01-26T06:26:42.064Z,13.83
2019-01-26T06:32:37.051Z,12.47
2019-01-26T06:38:32.079Z,13.04
2019-01-26T06:44:27.088Z,9.38
2019-01-26T06:50:22.112Z,8.67
2019-01-26T06:56:17.076Z,11.96
2019-01-26T07:02:12.077Z,11.07
2019-01-26T07:08:07.104Z,14.23
2019-01-26T07:14:02.112Z,13.46
2019-01-26T07:19:57.098Z,12.17
2019-01-26T07:25:52.148Z,11.87
2019-01-26T07:31:47.113Z,12.18
2019-01-26T07:37:42.103Z,12.09
2019-01-26T07:43:37.094Z,13.22
2019-01-26T07:49:32.096Z,14.82
2019-01-26T07:55:27.127Z,13.13
2019-01-26T08:01:22.099Z,14.13
2019-01-26T08:07:17.112Z,15.83
2019-01-26T08:13:12.109Z,17.47
2019-01-26T08:19:07.108Z,15.05
2019-01-26T08:25:02.109Z,17.88
2019-01-26T08:30:57.128Z,48.6
2019-01-26T08:36:52.133Z,33.61
2019-01-26T08:42:47.151Z,30.72
2019-01-26T08:48:42.172Z,48.66
2019-01-26T08:54:37.157Z,27.55
2019-01-26T09:00:32.133Z,16.82
2019-01-26T09:06:27.135Z,11.9
2019-01-26T09:12:22.176Z,11.48
2019-01-26T09:18:17.165Z,12.49
2019-01-26T09:24:12.130Z,25.08
2019-01-26T09:30:07.148Z,12.23
2019-01-26T09:36:02.150Z,11.11
2019-01-26T09:41:57.143Z,17.57
2019-01-26T09:47:52.194Z,10.99
2019-01-26T09:53:47.178Z,11.38
2019-01-26T09:59:42.171Z,11.89
2019-01-26T10:05:37.183Z,10.91
2019-01-26T10:11:32.225Z,12.27
2019-01-26T10:17:27.226Z,11.81
2019-01-26T10:23:22.191Z,20.93
2019-01-26T10:29:17.212Z,11.61
2019-01-26T10:35:12.198Z,11.24
2019-01-26T10:41:07.210Z,12.52
2019-01-26T10:47:02.200Z,12.17
2019-01-26T10:52:57.204Z,12.68
2019-01-26T10:58:52.209Z,12.68
2019-01-26T11:04:47.210Z,12
2019-01-26T11:10:42.209Z,11.72
2019-01-26T11:16:37.210Z,9.56
2019-01-26T11:22:32.206Z,10.72
2019-01-26T11:28:27.229Z,9.9
2019-01-26T11:34:22.220Z,12.23
2019-01-26T11:40:17.216Z,12.71
2019-01-26T11:46:12.274Z,11.04
2019-01-26T11:52:07.227Z,9.62
2019-01-26T11:58:02.242Z,7.35
2019-01-26T12:03:57.238Z,7.57
2019-01-26T12:09:52.234Z,7.82
2019-01-26T12:15:47.231Z,8.85
2019-01-26T12:21:42.256Z,9.84
2019-01-26T12:27:37.259Z,9.74
2019-01-26T12:33:32.277Z,9.59
2019-01-26T12:39:27.272Z,10.01
2019-01-26T12:45:22.256Z,7.8
2019-01-26T12:51:17.262Z,9.19
2019-01-26T12:57:12.296Z,10.02
2019-01-26T13:03:07.260Z,9.58
2019-01-26T13:09:02.254Z,9.49
2019-01-26T13:14:57.272Z,10.91
2019-01-26T13:20:52.272Z,10.47
2019-01-26T13:26:47.270Z,9.32
2019-01-26T13:32:42.295Z,11.63
2019-01-26T13:38:37.278Z,9.67
2019-01-26T13:44:32.278Z,9.46
2019-01-26T13:50:27.302Z,8.04
2019-01-26T13:56:22.278Z,12.51
2019-01-26T14:02:17.291Z,9.22
2019-01-26T14:08:12.363Z,7.28
2019-01-26T14:14:07.325Z,7.44
2019-01-26T14:20:02.306Z,6.73
2019-01-26T14:25:57.321Z,5.72
2019-01-26T14:31:52.337Z,8.67
2019-01-26T14:37:47.308Z,6.23
2019-01-26T14:43:42.319Z,4.82
2019-01-26T14:49:37.411Z,4.94
2019-01-26T14:55:32.328Z,7.68
2019-01-26T15:01:27.322Z,5.26
2019-01-26T15:07:22.342Z,5.33
2019-01-26T15:13:17.377Z,6.48
2019-01-26T15:19:12.350Z,5.68
2019-01-26T15:25:07.374Z,5.92
2019-01-26T15:31:02.362Z,5.94
2019-01-26T15:36:57.394Z,6.63
2019-01-26T15:42:52.393Z,7.13
2019-01-26T15:48:47.375Z,9.2
2019-01-26T15:54:42.353Z,10.31
2019-01-26T16:00:37.354Z,9.48
2019-01-26T16:06:32.420Z,8.05
2019-01-26T16:12:27.396Z,8.63
2019-01-26T16:18:22.368Z,7.82
2019-01-26T16:24:17.422Z,14.3
2019-01-26T16:30:12.365Z,10.69
2019-01-26T16:36:07.405Z,13.81
2019-01-26T16:42:02.400Z,13.09
2019-01-26T16:47:57.422Z,34.63
2019-01-26T16:53:52.429Z,42.23
2019-01-26T16:59:47.407Z,19.97
2019-01-26T17:05:42.417Z,21.35
2019-01-26T17:11:37.417Z,30.67
2019-01-26T17:17:32.418Z,21.85
2019-01-26T17:23:27.412Z,19.58
2019-01-26T17:29:22.412Z,19.48
2019-01-26T17:35:17.423Z,21.68
2019-01-26T17:41:12.432Z,21.05
2019-01-26T17:47:07.433Z,20.84
2019-01-26T17:53:02.421Z,14.58
2019-01-26T17:58:57.445Z,19.35
2019-01-26T18:04:52.436Z,19.48
2019-01-26T18:10:47.466Z,38.1
2019-01-26T18:16:42.442Z,31.22
2019-01-26T18:22:37.431Z,19.6
2019-01-26T18:28:32.457Z,27.35
2019-01-26T18:34:27.456Z,24.65
2019-01-26T18:40:22.466Z,25.17
2019-01-26T18:46:18.038Z,27.5
2019-01-26T18:52:12.472Z,36.9
2019-01-26T18:58:07.462Z,19.69
2019-01-26T19:04:02.462Z,34.18
2019-01-26T19:09:57.490Z,60.43
2019-01-26T19:15:52.478Z,47.91
2019-01-26T19:21:47.470Z,43.42
2019-01-26T19:27:42.459Z,39.03
2019-01-26T19:33:37.479Z,37.19
2019-01-26T19:39:32.491Z,43.74
2019-01-26T19:45:27.478Z,53.97
2019-01-26T19:51:22.482Z,55.54
2019-01-26T19:57:17.505Z,35.56
2019-01-26T20:03:12.485Z,51.07
2019-01-26T20:09:09.391Z,43.41
2019-01-26T20:15:02.511Z,43.83
2019-01-26T20:20:57.500Z,20.3
2019-01-26T20:26:52.513Z,22.3
2019-01-26T20:32:47.522Z,27.73
2019-01-26T20:38:42.533Z,23.03
2019-01-26T20:44:37.545Z,22.33
2019-01-26T20:50:32.507Z,32.48
2019-01-26T20:56:27.560Z,36.43
2019-01-26T21:02:22.511Z,37.07
2019-01-26T21:08:17.624Z,40.2
2019-01-26T21:14:12.520Z,36.02
2019-01-26T21:20:07.558Z,37.74
2019-01-26T21:26:02.539Z,28.21
2019-01-26T21:31:57.556Z,23.78
2019-01-26T21:37:52.547Z,26.93
2019-01-26T21:43:47.625Z,19.18
2019-01-26T21:49:42.559Z,18.03
2019-01-26T21:55:37.552Z,15.32
2019-01-26T22:01:32.581Z,15.57
2019-01-26T22:07:27.581Z,16.58
2019-01-26T22:13:22.575Z,22.08
2019-01-26T22:19:21.721Z,18.14
2019-01-26T22:25:12.574Z,21.69
2019-01-26T22:31:07.550Z,16
2019-01-26T22:37:02.623Z,26.47
2019-01-26T22:42:57.561Z,30.12
2019-01-26T22:48:52.620Z,26.89
2019-01-26T22:54:47.597Z,25.07
2019-01-26T23:00:42.625Z,28.49
2019-01-26T23:06:37.576Z,19.71
2019-01-26T23:12:32.617Z,19.29
2019-01-26T23:18:27.659Z,17.19
2019-01-26T23:24:22.676Z,20.51
2019-01-26T23:30:17.598Z,15.47
2019-01-26T23:36:12.625Z,15.84
2019-01-26T23:42:07.628Z,18.63
2019-01-26T23:48:02.657Z,22.23
2019-01-26T23:53:57.615Z,20.26
2019-01-26T23:59:52.651Z,19.61
